This is the latest recevied weather packets stored in our database for station/object DB0FN-10. If no packets are shown the sender has not sent any weather packets the latest 10 day(s).
| Time | Temp. | Humidity | Pressure | Rain* | Wind** | Luminosity | Snow |
|---|---|---|---|---|---|---|---|
| 1777469451 | 18.89° C | 31% | 1022.4 hPa | - | - | - | - |
| 1777468550 | 20° C | 31% | 1022.3 hPa | - | - | - | - |
| 1777467650 | 20° C | 30% | 1022.5 hPa | - | - | - | - |
| 1777466750 | 20.56° C | 31% | 1022.4 hPa | - | - | - | - |
| 1777465850 | 19.44° C | 32% | 1022.3 hPa | - | - | - | - |
| 1777464950 | 19.44° C | 31% | 1022.4 hPa | - | - | - | - |
| 1777464050 | 18.89° C | 32% | 1022.4 hPa | - | - | - | - |
| 1777463150 | 19.44° C | 32% | 1022.4 hPa | - | - | - | - |
| 1777462250 | 18.89° C | 35% | 1022.4 hPa | - | - | - | - |
| 1777461350 | 18.33° C | 34% | 1022.5 hPa | - | - | - | - |
| 1777460450 | 18.33° C | 35% | 1022.4 hPa | - | - | - | - |
| 1777459550 | 18.33° C | 36% | 1022.4 hPa | - | - | - | - |
| 1777458650 | 18.89° C | 34% | 1022.4 hPa | - | - | - | - |
| 1777457750 | 18.89° C | 35% | 1022.5 hPa | - | - | - | - |
| 1777456850 | 18.33° C | 36% | 1022.5 hPa | - | - | - | - |
| 1777455949 | 17.78° C | 38% | 1022.5 hPa | - | - | - | - |
| 1777455049 | 17.78° C | 38% | 1022.4 hPa | - | - | - | - |
| 1777454149 | 16.11° C | 40% | 1022.5 hPa | - | - | - | - |
| 1777453249 | 16.11° C | 40% | 1022.4 hPa | - | - | - | - |
| 1777452349 | 15° C | 42% | 1022.4 hPa | - | - | - | - |
| 1777451449 | 15° C | 42% | 1022.3 hPa | - | - | - | - |
| 1777450549 | 14.44° C | 44% | 1022.2 hPa | - | - | - | - |
| 1777449649 | 13.89° C | 43% | 1022.4 hPa | - | - | - | - |
| 1777448749 | 13.89° C | 43% | 1022.1 hPa | - | - | - | - |
| 1777447849 | 13.89° C | 42% | 1022 hPa | - | - | - | - |
* Rain since midnight (hover to see other rain measurements)
** Current wind speed in m/s (hover to see current wind gust speed)